Time;durP1;ratioP1;P1;durP2;ratioP2;P2;SDS_P1;SDS_P2;PMS_P1;PMS_P2;Temp;Humidity;BMP_temperature;BMP_pressure;BME280_temperature;BME280_humidity;BME280_pressure;Samples;Min_cycle;Max_cycle;Signal;HPM_P1;HPM_P2
2024/04/16 00:01:41;;;;;;;3.25;1.00;;;;;;;8.98;79.02;99500.59;5476025;25;98248;-75
2024/04/16 00:04:09;;;;;;;;;;;;;;;9.31;78.35;99497.22;5478029;25;97234;-76
2024/04/16 00:06:35;;;;;;;3.20;0.98;;;;;;;9.40;79.05;99499.38;5476986;25;94745;-77
2024/04/16 00:09:03;;;;;;;;;;;;;;;9.33;78.29;99497.97;5475443;25;94760;-77
2024/04/16 00:11:31;;;;;;;3.60;1.20;;;;;;;9.04;78.59;99497.66;5478335;25;96778;-77
2024/04/16 00:13:59;;;;;;;7.18;1.38;;;;;;;9.28;79.45;99500.84;5465797;25;95835;-76
2024/04/16 00:16:24;;;;;;;2.90;1.15;;;;;;;9.24;78.64;99499.31;5481614;25;95204;-76
2024/04/16 00:18:52;;;;;;;;;;;;;;;9.59;77.17;99506.28;5487935;25;94785;-76
2024/04/16 00:21:18;;;;;;;4.18;1.30;;;;;;;9.50;77.90;99505.91;5481966;25;99661;-75
2024/04/16 00:23:46;;;;;;;;;;;;;;;9.22;78.64;99500.31;5486110;25;100054;-75
2024/04/16 00:26:11;;;;;;;8.77;1.70;;;;;;;9.09;78.26;99502.69;5479841;25;94805;-75
2024/04/16 00:28:42;;;;;;;;;;;;;;;9.11;78.55;99504.34;5479749;25;94975;-75
2024/04/16 00:31:07;;;;;;;2.55;1.35;;;;;;;9.27;77.74;99498.28;5488422;25;95389;-76
2024/04/16 00:33:35;;;;;;;;;;;;;;;9.48;76.53;99513.88;5473198;25;95771;-76
2024/04/16 00:36:00;;;;;;;6.35;2.10;;;;;;;8.99;77.41;99510.16;5493110;25;95530;-76
2024/04/16 00:38:28;;;;;;;;;;;;;;;8.87;78.08;99504.66;5474988;25;94875;-76
2024/04/16 00:40:54;;;;;;;3.42;1.48;;;;;;;8.75;78.91;99501.69;5476014;25;96989;-76
2024/04/16 00:43:23;;;;;;;;;;;;;;;9.20;77.89;99503.84;5481934;25;100099;-74
2024/04/16 00:45:53;;;;;;;5.28;2.20;;;;;;;9.12;76.35;99508.66;5480397;25;95053;-75
2024/04/16 00:48:24;;;;;;;8.45;2.17;;;;;;;9.21;76.61;99515.25;5475056;25;94714;-76
2024/04/16 00:50:50;;;;;;;6.75;2.25;;;;;;;9.12;77.68;99513.91;5474696;25;98368;-75
2024/04/16 00:53:20;;;;;;;6.90;2.17;;;;;;;9.33;76.76;99512.00;5474971;25;96840;-75
2024/04/16 00:55:46;;;;;;;5.30;2.53;;;;;;;9.34;76.90;99507.59;5473912;25;95970;-74
2024/04/16 00:58:17;;;;;;;7.15;2.30;;;;;;;9.68;75.21;99519.94;5467817;25;96265;-74
2024/04/16 01:00:42;;;;;;;6.85;2.08;;;;;;;9.21;75.60;99504.72;5475018;25;96751;-75
2024/04/16 01:03:13;;;;;;;;;;;;;;;9.63;75.75;99516.69;5480657;25;96901;-75
2024/04/16 01:05:39;;;;;;;7.28;2.60;;;;;;;9.48;75.57;99513.03;5486209;25;94743;-75
2024/04/16 01:08:10;;;;;;;8.13;2.47;;;;;;;9.45;74.37;99527.22;5478872;25;94836;-75
2024/04/16 01:10:37;;;;;;;5.63;2.40;;;;;;;9.43;76.55;99529.09;5477523;25;99733;-76
2024/04/16 01:13:06;;;;;;;11.63;2.83;;;;;;;9.55;75.67;99536.38;5493312;25;96204;-76
2024/04/16 01:15:31;;;;;;;7.93;2.88;;;;;;;9.40;74.52;99529.22;5469354;25;94805;-76
2024/04/16 01:18:01;;;;;;;;;;;;;;;8.97;76.74;99517.31;5468321;25;94836;-76
2024/04/16 01:20:30;;;;;;;4.45;2.70;;;;;;;9.26;76.21;99522.94;5478169;25;100337;-76
2024/04/16 01:23:01;;;;;;;8.07;2.75;;;;;;;9.56;75.03;99519.63;5486456;25;95590;-76
2024/04/16 01:25:26;;;;;;;8.40;2.97;;;;;;;9.77;74.00;99530.88;5477377;25;94940;-75
2024/04/16 01:27:54;;;;;;;;;;;;;;;9.16;75.31;99525.19;5490166;25;95562;-76
2024/04/16 01:30:19;;;;;;;11.98;3.00;;;;;;;8.80;76.47;99525.16;5471752;25;97553;-77
2024/04/16 01:32:48;;;;;;;;;;;;;;;8.54;77.13;99529.00;5474414;25;95711;-76
2024/04/16 01:35:13;;;;;;;5.28;3.13;;;;;;;8.67;77.47;99534.56;5464841;25;95118;-75
2024/04/16 01:37:41;;;;;;;;;;;;;;;8.89;76.33;99537.91;5472800;25;95745;-76
2024/04/16 01:40:11;;;;;;;7.68;2.55;;;;;;;9.09;75.79;99534.31;5468501;25;96716;-75
2024/04/16 01:42:39;;;;;;;6.05;2.25;;;;;;;8.57;76.24;99528.88;5470807;25;96294;-76
2024/04/16 01:45:05;;;;;;;8.63;3.20;;;;;;;8.96;75.53;99535.81;5474008;25;95943;-76
2024/04/16 01:47:33;;;;;;;;;;;;;;;9.25;74.90;99534.44;5474046;25;95081;-76
2024/04/16 01:49:58;;;;;;;4.22;2.58;;;;;;;9.61;73.25;99543.13;5473566;25;99739;-75
2024/04/16 01:52:26;;;;;;;;;;;;;;;9.09;73.86;99532.53;5476382;25;99597;-74
2024/04/16 01:54:51;;;;;;;7.57;2.83;;;;;;;8.89;74.04;99516.81;5472369;25;94807;-78
2024/04/16 01:57:22;;;;;;;;;;;;;;;8.89;74.64;99523.88;5472283;25;97409;-78
2024/04/16 01:59:47;;;;;;;5.25;2.72;;;;;;;8.62;75.83;99524.25;5462571;25;96668;-79
2024/04/16 02:02:15;;;;;;;;;;;;;;;9.04;74.47;99526.63;5473531;25;99612;-76
2024/04/16 02:04:41;;;;;;;6.70;2.78;;;;;;;8.79;74.54;99528.75;5461937;25;97052;-77
2024/04/16 02:07:09;;;;;;;;;;;;;;;8.45;76.74;99539.13;5476969;25;94916;-75
2024/04/16 02:09:34;;;;;;;7.53;2.65;;;;;;;8.36;75.64;99537.75;5478553;25;96659;-74
2024/04/16 02:12:02;;;;;;;;;;;;;;;8.34;77.01;99526.44;5483837;25;96139;-75
2024/04/16 02:14:30;;;;;;;7.70;2.80;;;;;;;8.35;76.54;99536.06;5486908;25;95146;-76
2024/04/16 02:16:58;;;;;;;5.90;2.58;;;;;;;8.50;75.53;99538.00;5480914;25;95347;-76
2024/04/16 02:19:24;;;;;;;7.13;2.80;;;;;;;8.54;76.35;99536.06;5498885;25;97126;-76
2024/04/16 02:21:51;;;;;;;;;;;;;;;8.73;74.98;99534.28;5489511;25;95819;-75
2024/04/16 02:24:17;;;;;;;8.18;3.05;;;;;;;8.76;75.05;99540.28;5497829;25;97865;-76
2024/04/16 02:26:45;;;;;;;;;;;;;;;9.00;73.29;99543.50;5483522;25;95789;-75
2024/04/16 02:29:10;;;;;;;7.63;2.90;;;;;;;9.04;72.70;99542.44;5488157;25;96843;-77
2024/04/16 02:31:41;;;;;;;;;;;;;;;9.38;72.32;99543.44;5470795;25;96872;-76
2024/04/16 02:34:06;;;;;;;4.47;2.83;;;;;;;9.28;72.33;99543.03;5479256;25;94856;-76
2024/04/16 02:36:34;;;;;;;;;;;;;;;8.64;74.39;99545.25;5483071;25;95112;-76
2024/04/16 02:39:00;;;;;;;6.07;2.67;;;;;;;8.41;76.16;99543.66;5490612;25;96704;-75
2024/04/16 02:41:27;;;;;;;;;;;;;;;8.36;75.30;99543.88;5468258;25;96888;-77
2024/04/16 02:43:53;;;;;;;5.03;2.15;;;;;;;8.33;76.46;99540.56;5474307;25;95923;-77
2024/04/16 02:46:21;;;;;;;;;;;;;;;8.43;75.86;99533.94;5480137;25;95056;-76
2024/04/16 02:48:49;;;;;;;7.10;2.75;;;;;;;8.73;75.03;99531.63;5478420;25;97140;-77
2024/04/16 02:51:17;;;;;;;7.82;2.95;;;;;;;8.63;74.42;99525.97;5484299;25;98930;-77
2024/04/16 02:53:43;;;;;;;5.93;3.38;;;;;;;8.44;74.79;99521.63;5477631;25;94733;-78
2024/04/16 02:56:11;;;;;;;;;;;;;;;8.53;74.13;99526.47;5485531;25;95857;-76
2024/04/16 02:58:36;;;;;;;4.88;2.42;;;;;;;8.24;75.38;99510.19;5480992;25;97552;-74
2024/04/16 03:01:06;;;;;;;;;;;;;;;8.98;73.57;99505.84;5487934;25;95765;-75
2024/04/16 03:03:32;;;;;;;4.85;2.40;;;;;;;8.74;72.90;99515.78;5481239;25;95239;-75
2024/04/16 03:06:04;;;;;;;3.08;2.53;;;;;;;8.79;72.11;99507.66;5472309;25;95261;-74
2024/04/16 03:08:30;;;;;;;5.47;2.75;;;;;;;9.02;71.20;99506.53;5487349;25;96763;-75
2024/04/16 03:10:59;;;;;;;6.20;2.20;;;;;;;9.37;69.20;99507.47;5475756;25;97515;-75
2024/04/16 03:13:24;;;;;;;5.45;2.30;;;;;;;8.88;70.60;99504.59;5475391;25;96022;-75
2024/04/16 03:15:52;;;;;;;;;;;;;;;8.35;72.30;99502.69;5486293;25;94961;-74
2024/04/16 03:18:18;;;;;;;6.10;2.22;;;;;;;8.94;71.75;99503.44;5486007;25;97153;-74
2024/04/16 03:20:46;;;;;;;;;;;;;;;9.24;69.87;99504.59;5485951;25;95406;-74
2024/04/16 03:23:14;;;;;;;3.83;2.20;;;;;;;9.28;70.07;99505.25;5483561;25;95089;-74
2024/04/16 03:25:42;;;;;;;3.55;2.05;;;;;;;9.23;69.09;99513.41;5488241;25;95248;-74
2024/04/16 03:28:08;;;;;;;10.43;2.45;;;;;;;9.19;69.62;99507.41;5488481;25;96648;-75
2024/04/16 03:30:36;;;;;;;;;;;;;;;9.53;68.50;99513.66;5475026;25;96056;-73
2024/04/16 03:33:02;;;;;;;4.13;1.80;;;;;;;9.56;68.04;99506.44;5473429;25;95951;-74
2024/04/16 03:35:30;;;;;;;;;;;;;;;9.35;68.66;99517.22;5478140;25;95018;-73
2024/04/16 03:37:57;;;;;;;4.50;1.83;;;;;;;8.90;70.09;99504.50;5476484;25;95550;-74
2024/04/16 03:40:28;;;;;;;5.20;1.83;;;;;;;9.12;69.37;99516.56;5476957;25;96254;-73
2024/04/16 03:42:56;;;;;;;5.22;1.90;;;;;;;9.42;68.54;99508.06;5464791;25;96856;-74
2024/04/16 03:45:22;;;;;;;7.50;1.92;;;;;;;8.61;71.13;99514.63;5476006;25;94971;-74
2024/04/16 03:47:50;;;;;;;;;;;;;;;9.11;70.13;99520.16;5475566;25;95365;-74
2024/04/16 03:50:15;;;;;;;6.53;1.95;;;;;;;9.39;69.33;99510.84;5477878;25;96279;-75
2024/04/16 03:52:43;;;;;;;;;;;;;;;9.45;67.86;99511.41;5477098;25;95803;-75
2024/04/16 03:55:09;;;;;;;4.38;2.22;;;;;;;9.23;69.56;99510.78;5476918;25;95357;-74
2024/04/16 03:57:39;;;;;;;;;;;;;;;9.55;67.62;99510.00;5475622;25;99336;-74
2024/04/16 04:02:53;;;;;;;3.13;1.60;;;;;;;9.19;68.54;99517.09;5475232;25;95505;-74
2024/04/16 04:05:19;;;;;;;3.40;1.38;;;;;;;9.29;69.06;99517.53;5474651;25;96651;-75
2024/04/16 04:07:47;;;;;;;;;;;;;;;9.65;67.73;99518.28;5471549;25;97253;-77
2024/04/16 04:10:15;;;;;;;4.45;1.45;;;;;;;9.86;66.35;99503.16;5470492;25;97241;-76
2024/04/16 04:12:45;;;;;;;3.08;1.58;;;;;;;9.86;67.16;99503.16;5480012;25;95398;-76
2024/04/16 04:15:11;;;;;;;4.38;1.90;;;;;;;9.99;66.00;99505.06;5480228;25;97112;-77
2024/04/16 04:17:39;;;;;;;;;;;;;;;10.08;65.91;99508.16;5477135;25;96441;-77
2024/04/16 04:20:05;;;;;;;4.63;1.73;;;;;;;9.75;67.00;99511.63;5485302;25;97267;-77
2024/04/16 04:22:33;;;;;;;4.85;1.70;;;;;;;9.77;67.37;99504.50;5480419;25;94799;-77
2024/04/16 04:24:58;;;;;;;2.65;1.35;;;;;;;9.86;66.73;99509.28;5475551;25;94902;-76
2024/04/16 04:27:26;;;;;;;;;;;;;;;9.51;67.49;99518.16;5479522;25;96757;-76
2024/04/16 04:29:54;;;;;;;2.72;1.60;;;;;;;9.78;67.71;99510.63;5480726;25;96966;-76
2024/04/16 04:32:22;;;;;;;5.05;1.77;;;;;;;9.81;67.05;99515.75;5481019;25;95096;-76
2024/04/16 04:34:48;;;;;;;3.80;1.50;;;;;;;9.83;67.07;99503.31;5466250;25;95360;-76
2024/04/16 04:37:16;;;;;;;;;;;;;;;10.04;66.24;99511.91;5486183;25;96754;-76
2024/04/16 04:39:41;;;;;;;5.43;1.77;;;;;;;9.99;66.70;99504.22;5480949;25;95426;-77
2024/04/16 04:42:09;;;;;;;;;;;;;;;9.71;67.22;99509.25;5483834;25;94679;-77
2024/04/16 04:44:34;;;;;;;7.10;1.42;;;;;;;9.66;67.86;99508.59;5467591;25;95431;-76
2024/04/16 04:47:05;;;;;;;;;;;;;;;9.79;68.27;99507.03;5472527;25;96790;-76
2024/04/16 04:49:30;;;;;;;4.10;1.70;;;;;;;9.74;68.66;99499.38;5488449;25;96852;-78
2024/04/16 04:51:58;;;;;;;;;;;;;;;9.88;67.24;99507.44;5486073;25;94784;-76
2024/04/16 04:54:24;;;;;;;6.03;1.77;;;;;;;10.10;66.90;99516.88;5480156;25;94868;-76
2024/04/16 04:56:52;;;;;;;;;;;;;;;9.51;69.01;99518.16;5482111;25;96910;-77
2024/04/16 04:59:17;;;;;;;1.95;1.55;;;;;;;9.78;68.84;99514.09;5488261;25;96846;-76
2024/04/16 05:01:45;;;;;;;;;;;;;;;9.87;68.44;99518.91;5486573;25;95759;-73
2024/04/16 05:04:13;;;;;;;5.72;2.00;;;;;;;10.02;68.17;99519.03;5466270;25;95927;-76
2024/04/16 05:06:43;;;;;;;3.88;1.80;;;;;;;9.65;71.46;99523.56;5469181;25;97455;-76
2024/04/16 05:09:08;;;;;;;4.75;1.92;;;;;;;8.94;75.87;99525.34;5478064;25;99183;-75
2024/04/16 05:11:36;;;;;;;;;;;;;;;8.97;77.01;99527.00;5469938;25;94707;-77
2024/04/16 05:14:02;;;;;;;2.53;1.80;;;;;;;9.36;76.73;99526.84;5475488;25;94843;-78
2024/04/16 05:16:30;;;;;;;;;;;;;;;9.31;77.36;99534.13;5477177;25;96829;-75
2024/04/16 05:18:55;;;;;;;4.47;1.95;;;;;;;9.15;78.26;99534.88;5476928;25;95500;-75
2024/04/16 05:21:25;;;;;;;;;;;;;;;9.31;79.26;99528.84;5478775;25;94702;-75
2024/04/16 05:23:51;;;;;;;6.00;2.08;;;;;;;9.31;78.45;99531.50;5469174;25;94741;-75
2024/04/16 05:26:21;;;;;;;;;;;;;;;9.24;78.75;99525.66;5469575;25;98250;-72
2024/04/16 05:28:47;;;;;;;6.25;2.33;;;;;;;9.05;80.14;99515.19;5464999;25;97687;-73
2024/04/16 05:31:15;;;;;;;;;;;;;;;9.44;79.48;99517.63;5460966;25;95288;-72
2024/04/16 05:33:40;;;;;;;4.25;2.20;;;;;;;9.37;79.08;99515.38;5470352;25;95424;-77
2024/04/16 05:36:08;;;;;;;;;;;;;;;9.34;79.90;99523.41;5475292;25;100200;-76
2024/04/16 05:38:37;;;;;;;9.68;3.22;;;;;;;9.01;80.52;99518.88;5475394;25;95927;-76
2024/04/16 05:41:06;;;;;;;5.75;1.80;;;;;;;8.34;85.32;99516.78;5472030;25;94738;-76
2024/04/16 05:43:32;;;;;;;6.38;2.25;;;;;;;8.73;87.07;99515.84;5472356;25;96736;-78
2024/04/16 05:46:01;;;;;;;6.22;3.05;;;;;;;9.14;84.67;99524.38;5477007;25;98679;-76
2024/04/16 05:48:26;;;;;;;7.07;2.88;;;;;;;9.24;82.69;99520.41;5475152;25;99811;-74
2024/04/16 05:50:54;;;;;;;;;;;;;;;9.46;82.20;99522.78;5475235;25;96691;-76
2024/04/16 05:53:20;;;;;;;7.13;2.03;;;;;;;9.68;80.77;99525.22;5477456;25;94905;-75
2024/04/16 05:55:50;;;;;;;;;;;;;;;9.84;81.97;99521.72;5479329;25;95380;-77
2024/04/16 05:58:17;;;;;;;6.63;3.28;;;;;;;9.88;80.24;99522.41;5480826;25;99984;-74
2024/04/16 06:00:45;;;;;;;4.18;2.28;;;;;;;10.04;79.57;99517.19;5489694;25;94684;-76
2024/04/16 06:03:11;;;;;;;5.63;2.13;;;;;;;9.10;81.84;99522.84;5489143;25;94985;-75
2024/04/16 06:05:39;;;;;;;;;;;;;;;8.91;83.45;99522.88;5490668;25;96028;-75
2024/04/16 06:08:05;;;;;;;3.15;1.52;;;;;;;8.66;85.15;99523.16;5482741;25;95676;-75
2024/04/16 06:10:33;;;;;;;;;;;;;;;8.26;85.78;99516.25;5487131;25;94680;-76
2024/04/16 06:13:01;;;;;;;4.22;1.83;;;;;;;7.95;89.17;99524.66;5473698;25;95165;-75
2024/04/16 06:15:29;;;;;;;2.95;1.90;;;;;;;8.33;88.07;99522.13;5475884;25;95319;-75
2024/04/16 06:17:54;;;;;;;3.25;1.77;;;;;;;8.26;88.21;99523.28;5480951;25;97260;-75
2024/04/16 06:20:22;;;;;;;;;;;;;;;8.95;86.07;99523.59;5468469;25;94856;-75
2024/04/16 06:22:48;;;;;;;3.10;1.90;;;;;;;8.79;86.06;99521.66;5482683;25;95109;-76
2024/04/16 06:25:16;;;;;;;;;;;;;;;8.72;86.64;99519.44;5481180;25;100011;-76
2024/04/16 06:27:54;;;;;;;5.82;2.20;;;;;;;8.77;86.36;99526.19;5479590;25;96932;-76
2024/04/16 06:30:29;;;;;;;4.57;1.80;;;;;;;8.46;87.30;99531.16;5479231;25;94698;-78
2024/04/16 06:32:57;;;;;;;2.85;2.10;;;;;;;8.64;88.43;99518.94;5483712;25;95198;-77
2024/04/16 06:35:25;;;;;;;3.00;2.30;;;;;;;9.17;85.05;99525.13;5481932;25;95438;-76
2024/04/16 06:37:53;;;;;;;6.97;2.35;;;;;;;9.21;84.92;99525.81;5480221;25;97672;-76
2024/04/16 06:40:19;;;;;;;7.20;2.65;;;;;;;8.94;86.46;99528.00;5481204;25;95744;-76
2024/04/16 06:42:49;;;;;;;;;;;;;;;8.80;86.07;99522.53;5481790;25;94991;-75
2024/04/16 06:45:14;;;;;;;4.53;2.22;;;;;;;8.60;87.82;99527.91;5474202;25;97272;-75
2024/04/16 06:47:45;;;;;;;;;;;;;;;8.05;90.81;99525.09;5478777;25;99424;-76
2024/04/16 06:50:10;;;;;;;7.97;3.03;;;;;;;7.94;93.83;99522.94;5478000;25;94718;-75
2024/04/16 06:52:38;;;;;;;;;;;;;;;9.15;89.57;99529.59;5473855;25;94817;-75
2024/04/16 06:55:04;;;;;;;5.05;2.40;;;;;;;9.42;86.50;99518.63;5479097;25;100352;-77
2024/04/16 06:57:32;;;;;;;5.68;3.38;;;;;;;9.38;85.23;99522.34;5472294;25;96545;-76
2024/04/16 06:59:58;;;;;;;5.10;2.75;;;;;;;9.53;85.13;99532.09;5479137;25;94835;-75
2024/04/16 07:02:26;;;;;;;;;;;;;;;9.42;86.65;99531.81;5478136;25;94870;-76
2024/04/16 07:04:54;;;;;;;5.43;2.75;;;;;;;8.57;89.44;99533.28;5475137;25;97083;-76
2024/04/16 07:07:22;;;;;;;5.90;3.42;;;;;;;8.87;90.03;99538.88;5480301;25;96127;-76
2024/04/16 07:09:48;;;;;;;5.32;2.60;;;;;;;8.59;91.40;99532.31;5478895;25;95160;-76
2024/04/16 07:12:16;;;;;;;;;;;;;;;9.17;90.57;99525.13;5474613;25;94907;-76
2024/04/16 07:14:41;;;;;;;5.30;2.83;;;;;;;9.51;86.86;99523.44;5480133;25;99969;-76
2024/04/16 07:17:09;;;;;;;;;;;;;;;9.46;86.84;99541.25;5467260;25;100043;-76
2024/04/16 07:19:35;;;;;;;5.57;2.75;;;;;;;9.66;85.58;99542.88;5477601;25;95820;-75
2024/04/16 07:22:06;;;;;;;;;;;;;;;9.68;86.40;99541.03;5481471;25;98248;-76
2024/04/16 07:24:31;;;;;;;8.05;3.03;;;;;;;10.04;85.28;99531.25;5479531;25;97337;-77
2024/04/16 07:26:59;;;;;;;;;;;;;;;10.23;83.22;99544.34;5480016;25;96786;-76
2024/04/16 07:29:25;;;;;;;4.22;2.72;;;;;;;9.74;84.52;99535.44;5481497;25;95267;-76
2024/04/16 07:31:53;;;;;;;;;;;;;;;9.33;84.93;99535.75;5472685;25;94810;-76
2024/04/16 07:34:18;;;;;;;7.55;2.75;;;;;;;9.46;85.33;99536.84;5471007;25;96855;-76
2024/04/16 07:36:46;;;;;;;;;;;;;;;9.68;83.90;99547.16;5476537;25;95678;-76
2024/04/16 07:39:14;;;;;;;10.60;5.05;;;;;;;9.94;83.17;99540.56;5481153;25;95055;-75
2024/04/16 07:41:42;;;;;;;9.50;2.88;;;;;;;9.75;85.64;99551.19;5475700;25;95024;-75
2024/04/16 07:44:08;;;;;;;14.07;3.85;;;;;;;9.18;86.19;99550.56;5475845;25;96930;-76
2024/04/16 07:46:36;;;;;;;;;;;;;;;9.77;85.94;99554.63;5480050;25;97395;-77
2024/04/16 07:49:02;;;;;;;8.10;3.45;;;;;;;9.86;84.07;99562.06;5480454;25;94785;-75
2024/04/16 07:51:30;;;;;;;;;;;;;;;9.74;85.37;99562.69;5488932;25;94823;-76
2024/04/16 07:53:55;;;;;;;6.93;3.33;;;;;;;9.80;85.28;99562.38;5481852;25;97158;-74
2024/04/16 07:56:27;;;;;;;;;;;;;;;10.10;85.59;99562.59;5480366;25;97266;-77
2024/04/16 07:58:52;;;;;;;9.00;3.25;;;;;;;9.78;84.57;99569.50;5469022;25;95895;-77
2024/04/16 08:01:21;;;;;;;;;;;;;;;9.87;84.51;99576.97;5477732;25;94846;-75
2024/04/16 08:03:46;;;;;;;5.80;2.03;;;;;;;9.71;84.54;99568.13;5479384;25;96966;-77
2024/04/16 08:06:14;;;;;;;;;;;;;;;10.48;84.89;99576.44;5472600;25;97163;-76
2024/04/16 08:08:40;;;;;;;13.05;3.92;;;;;;;10.17;84.42;99576.34;5474973;25;94704;-76
2024/04/16 08:11:11;;;;;;;;;;;;;;;10.26;84.70;99575.84;5481182;25;95272;-78
2024/04/16 08:13:40;;;;;;;7.60;2.70;;;;;;;9.66;83.88;99582.44;5476047;25;97016;-76
2024/04/16 08:16:08;;;;;;;6.68;2.63;;;;;;;9.22;86.74;99587.28;5477457;25;96877;-75
2024/04/16 08:18:35;;;;;;;6.80;2.42;;;;;;;9.32;88.25;99596.47;5480965;25;94831;-77
2024/04/16 08:21:04;;;;;;;7.13;2.45;;;;;;;9.59;87.67;99603.84;5484426;25;94941;-77
2024/04/16 08:23:29;;;;;;;5.30;2.88;;;;;;;9.05;86.48;99602.13;5490490;25;95085;-76
2024/04/16 08:26:00;;;;;;;;;;;;;;;9.04;88.93;99612.75;5481673;25;94813;-76
2024/04/16 08:28:26;;;;;;;10.48;4.03;;;;;;;9.18;88.37;99618.22;5475866;25;97160;-78
2024/04/16 08:30:56;;;;;;;;;;;;;;;9.47;87.07;99619.44;5482584;25;94704;-75
2024/04/16 08:33:22;;;;;;;10.10;3.10;;;;;;;9.45;84.52;99622.13;5483269;25;96879;-76
2024/04/16 08:35:52;;;;;;;7.88;2.90;;;;;;;9.27;86.25;99617.75;5481476;25;95572;-75
2024/04/16 08:38:18;;;;;;;8.90;3.13;;;;;;;9.53;84.91;99621.78;5471373;25;97098;-76
2024/04/16 08:40:47;;;;;;;7.20;3.15;;;;;;;9.44;85.80;99615.19;5472373;25;94712;-77
2024/04/16 08:43:13;;;;;;;6.50;3.30;;;;;;;9.55;84.83;99619.91;5479420;25;97085;-76
2024/04/16 08:45:45;;;;;;;8.95;2.90;;;;;;;9.94;84.13;99612.66;5479713;25;96042;-76
2024/04/16 08:48:14;;;;;;;12.88;3.75;;;;;;;10.05;83.00;99608.59;5479505;25;94973;-76
2024/04/16 08:50:43;;;;;;;4.80;3.03;;;;;;;10.00;83.11;99617.63;5485127;25;95651;-76
2024/04/16 08:53:09;;;;;;;6.95;3.58;;;;;;;10.54;81.89;99618.38;5480426;25;96940;-75
2024/04/16 08:55:39;;;;;;;9.02;3.72;;;;;;;10.74;80.22;99620.81;5466073;25;97317;-76
2024/04/16 08:58:04;;;;;;;9.65;3.22;;;;;;;10.95;78.47;99628.50;5478608;25;94984;-75
2024/04/16 09:00:33;;;;;;;;;;;;;;;10.98;77.83;99617.75;5472558;25;95114;-76
2024/04/16 09:02:59;;;;;;;9.73;3.47;;;;;;;11.17;77.58;99621.06;5479352;25;96774;-75
2024/04/16 09:05:32;;;;;;;;;;;;;;;10.98;78.29;99621.25;5479080;25;95752;-75
2024/04/16 09:07:57;;;;;;;8.35;3.38;;;;;;;11.18;79.08;99622.78;5477842;25;94748;-76
2024/04/16 09:10:26;;;;;;;;;;;;;;;11.69;76.44;99618.97;5470818;25;95746;-78
2024/04/16 09:12:53;;;;;;;12.77;3.20;;;;;;;11.72;74.63;99625.91;5479541;25;96823;-76
2024/04/16 09:15:22;;;;;;;9.27;3.10;;;;;;;11.12;78.01;99623.13;5473034;25;96908;-75
2024/04/16 09:17:51;;;;;;;13.88;3.25;;;;;;;12.03;76.28;99620.53;5480899;25;94743;-77
2024/04/16 09:20:20;;;;;;;12.23;3.47;;;;;;;12.41;72.45;99620.03;5479629;25;95402;-77
2024/04/16 09:22:51;;;;;;;7.75;3.00;;;;;;;12.89;71.96;99611.72;5481453;25;97695;-76
2024/04/16 09:25:20;;;;;;;13.93;3.40;;;;;;;13.35;70.49;99611.47;5470422;25;97461;-75
2024/04/16 09:27:46;;;;;;;8.48;2.92;;;;;;;13.07;68.25;99613.19;5482566;25;95163;-76
2024/04/16 09:30:15;;;;;;;9.50;3.13;;;;;;;12.83;69.05;99620.06;5479556;25;94878;-77
2024/04/16 09:32:42;;;;;;;7.30;3.25;;;;;;;13.02;69.61;99623.25;5481332;25;99165;-76
2024/04/16 09:35:11;;;;;;;8.45;2.90;;;;;;;12.80;70.13;99625.53;5480215;25;97292;-76
2024/04/16 09:37:37;;;;;;;12.27;3.05;;;;;;;12.55;71.48;99618.25;5475110;25;95064;-76
2024/04/16 09:40:10;;;;;;;;;;;;;;;12.45;69.25;99632.16;5478397;25;94750;-76
2024/04/16 09:42:36;;;;;;;10.75;2.60;;;;;;;12.10;71.86;99623.69;5468977;25;100755;-75
2024/04/16 09:45:06;;;;;;;8.00;2.38;;;;;;;12.06;72.96;99625.66;5480320;25;95569;-75
2024/04/16 09:47:32;;;;;;;12.57;3.03;;;;;;;12.66;71.28;99620.25;5476559;25;94816;-76
2024/04/16 09:50:02;;;;;;;7.75;2.45;;;;;;;13.11;69.75;99622.69;5479707;25;95435;-76
2024/04/16 09:52:29;;;;;;;11.43;2.92;;;;;;;12.56;70.32;99619.09;5484337;25;97027;-75
2024/04/16 09:55:02;;;;;;;7.30;2.20;;;;;;;12.45;67.18;99618.91;5478662;25;100287;-77
2024/04/16 09:57:35;;;;;;;7.40;2.08;;;;;;;12.42;67.81;99616.44;5473089;25;94750;-76
2024/04/16 10:00:03;;;;;;;12.70;2.05;;;;;;;12.51;66.10;99610.59;5479858;25;94713;-76
2024/04/16 10:02:31;;;;;;;6.57;1.70;;;;;;;11.87;69.00;99617.97;5476008;25;98995;-74
2024/04/16 10:05:01;;;;;;;11.25;1.88;;;;;;;12.14;67.82;99615.44;5480538;25;97749;-75
2024/04/16 10:07:26;;;;;;;6.82;1.80;;;;;;;12.38;66.90;99627.25;5474558;25;94697;-75
2024/04/16 10:09:54;;;;;;;;;;;;;;;12.18;63.46;99614.34;5480373;25;95522;-76
2024/04/16 10:12:20;;;;;;;12.48;2.00;;;;;;;12.54;66.43;99607.75;5480744;25;96622;-76
2024/04/16 10:14:51;;;;;;;;;;;;;;;12.69;62.05;99602.34;5470214;25;99745;-77
2024/04/16 10:17:17;;;;;;;10.45;2.00;;;;;;;12.83;61.48;99606.81;5481396;25;94754;-76
2024/04/16 10:19:45;;;;;;;;;;;;;;;11.46;62.94;99615.03;5475539;25;94820;-76
2024/04/16 10:22:12;;;;;;;6.78;1.65;;;;;;;11.90;64.62;99622.22;5478719;25;97000;-77
2024/04/16 10:24:41;;;;;;;6.45;1.58;;;;;;;11.67;64.31;99609.44;5474179;25;97465;-76
2024/04/16 10:27:09;;;;;;;6.18;1.63;;;;;;;11.53;65.04;99616.38;5478226;25;94688;-76
2024/04/16 10:29:40;;;;;;;6.32;1.45;;;;;;;12.03;64.47;99620.53;5474152;25;94841;-76
2024/04/16 10:32:09;;;;;;;10.23;2.25;;;;;;;11.64;65.40;99618.41;5481366;25;97454;-76
2024/04/16 10:34:43;;;;;;;8.43;1.40;;;;;;;11.27;65.10;99614.34;5479611;25;97003;-76
2024/04/16 10:37:09;;;;;;;7.05;2.03;;;;;;;11.80;66.68;99618.41;5478296;25;94754;-77
2024/04/16 10:39:36;;;;;;;;;;;;;;;12.91;62.53;99615.13;5480189;25;94979;-76
2024/04/16 10:42:03;;;;;;;7.90;1.60;;;;;;;13.59;60.57;99615.16;5480824;25;99184;-78
2024/04/16 10:44:31;;;;;;;5.90;1.30;;;;;;;13.90;57.02;99606.91;5472608;25;96803;-77
2024/04/16 10:46:57;;;;;;;7.25;1.40;;;;;;;13.80;55.49;99605.78;5479857;25;94745;-76
2024/04/16 10:49:28;;;;;;;;;;;;;;;12.93;56.57;99605.25;5481936;25;94972;-76
2024/04/16 10:51:54;;;;;;;6.38;1.30;;;;;;;12.32;59.31;99609.06;5489308;25;97524;-76
2024/04/16 10:54:22;;;;;;;7.72;1.30;;;;;;;12.69;58.53;99604.16;5478478;25;98185;-76
2024/04/16 10:56:50;;;;;;;7.95;1.50;;;;;;;13.39;58.11;99611.16;5469097;25;94750;-76
2024/04/16 10:59:19;;;;;;;7.30;1.55;;;;;;;13.51;57.58;99609.53;5475924;25;94853;-77
2024/04/16 11:01:46;;;;;;;8.82;1.48;;;;;;;13.69;55.15;99613.63;5480529;25;95563;-77
2024/04/16 11:04:16;;;;;;;5.00;1.42;;;;;;;13.81;52.47;99612.81;5474779;25;97296;-77
2024/04/16 11:06:46;;;;;;;4.93;1.23;;;;;;;13.59;53.35;99617.81;5480211;25;94755;-75
2024/04/16 11:09:15;;;;;;;4.05;1.05;;;;;;;12.26;54.20;99628.00;5479345;25;94924;-76
2024/04/16 11:11:42;;;;;;;3.97;1.10;;;;;;;11.25;61.50;99636.53;5474669;25;96927;-76
2024/04/16 11:14:10;;;;;;;6.13;1.58;;;;;;;11.02;65.24;99651.03;5477738;25;96838;-76
2024/04/16 11:16:36;;;;;;;5.53;1.20;;;;;;;10.98;68.63;99642.38;5481385;25;95125;-75
2024/04/16 11:19:05;;;;;;;;;;;;;;;10.93;70.09;99648.88;5481414;25;94902;-75
2024/04/16 11:21:33;;;;;;;5.03;1.20;;;;;;;11.75;69.21;99636.34;5482797;25;97063;-75
2024/04/16 11:24:05;;;;;;;3.80;1.30;;;;;;;12.03;66.72;99630.28;5484978;25;96680;-76
2024/04/16 11:26:30;;;;;;;5.18;1.35;;;;;;;12.12;63.64;99629.75;5489857;25;94768;-75
2024/04/16 11:28:58;;;;;;;;;;;;;;;12.75;62.33;99627.63;5491666;25;94852;-75
2024/04/16 11:31:25;;;;;;;4.55;1.10;;;;;;;12.81;58.42;99634.34;5494362;25;98768;-77
2024/04/16 11:33:53;;;;;;;5.40;1.20;;;;;;;12.95;58.46;99621.94;5492582;25;95649;-77
2024/04/16 11:36:18;;;;;;;2.30;1.10;;;;;;;12.89;58.93;99627.63;5483906;25;94719;-75
2024/04/16 11:38:46;;;;;;;;;;;;;;;13.12;57.84;99624.44;5479006;25;95011;-76
2024/04/16 11:41:15;;;;;;;4.43;1.15;;;;;;;13.04;57.22;99623.16;5479652;25;96563;-76
2024/04/16 11:43:44;;;;;;;5.63;1.30;;;;;;;13.26;56.66;99628.00;5468348;25;97183;-76
2024/04/16 11:46:11;;;;;;;3.85;1.17;;;;;;;12.81;56.67;99627.25;5471297;25;94815;-76
2024/04/16 11:48:42;;;;;;;3.03;1.15;;;;;;;12.80;56.41;99625.53;5480668;25;94645;-76
2024/04/16 11:51:07;;;;;;;5.85;1.27;;;;;;;13.64;54.78;99621.06;5478368;25;96896;-75
2024/04/16 11:53:37;;;;;;;;;;;;;;;14.56;52.47;99621.88;5473730;25;95605;-76
2024/04/16 11:56:03;;;;;;;3.25;1.25;;;;;;;13.88;53.31;99618.56;5467072;25;95361;-76
2024/04/16 11:58:34;;;;;;;6.45;1.40;;;;;;;14.27;51.98;99634.47;5480213;25;94949;-76
2024/04/16 12:01:00;;;;;;;3.53;1.00;;;;;;;14.16;52.02;99626.38;5472428;25;95729;-75
2024/04/16 12:03:28;;;;;;;;;;;;;;;14.24;51.12;99628.53;5468861;25;99750;-75